createdAt,value
2019-05-12T00:02:39.645Z,99.90
2019-05-12T00:06:03.065Z,99.90
2019-05-12T00:09:28.204Z,99.90
2019-05-12T00:12:51.168Z,99.90
2019-05-12T00:16:14.318Z,99.90
2019-05-12T00:19:37.805Z,99.90
2019-05-12T00:23:19.923Z,99.90
2019-05-12T00:26:30.430Z,99.90
2019-05-12T00:29:53.856Z,99.90
2019-05-12T00:33:18.014Z,99.90
2019-05-12T00:36:41.292Z,99.90
2019-05-12T00:40:04.602Z,99.90
2019-05-12T00:43:28.186Z,99.90
2019-05-12T00:46:51.440Z,99.90
2019-05-12T00:50:14.686Z,99.90
2019-05-12T00:53:43.259Z,99.90
2019-05-12T00:57:04.369Z,99.90
2019-05-12T01:00:29.370Z,99.90
2019-05-12T01:03:52.348Z,99.90
2019-05-12T01:07:15.409Z,99.90
2019-05-12T01:10:39.237Z,99.90
2019-05-12T01:14:02.551Z,99.90
2019-05-12T01:17:28.094Z,99.90
2019-05-12T01:20:51.260Z,99.90
2019-05-12T01:24:14.350Z,99.90
2019-05-12T01:27:38.081Z,99.90
2019-05-12T01:31:03.455Z,99.90
2019-05-12T01:34:27.777Z,99.90
2019-05-12T01:37:51.602Z,99.90
2019-05-12T01:41:14.708Z,99.90
2019-05-12T01:44:38.312Z,99.90
2019-05-12T01:48:01.569Z,99.90
2019-05-12T01:51:24.631Z,99.90
2019-05-12T01:54:48.304Z,99.90
2019-05-12T01:58:11.604Z,99.90
2019-05-12T02:01:35.766Z,99.90
2019-05-12T02:05:04.102Z,99.90
2019-05-12T02:08:38.362Z,99.90
2019-05-12T02:12:01.986Z,99.90
2019-05-12T02:15:27.663Z,99.90
2019-05-12T02:18:50.268Z,99.90
2019-05-12T02:22:13.315Z,99.90
2019-05-12T02:25:38.021Z,99.90
2019-05-12T02:29:01.347Z,99.90
2019-05-12T02:32:28.426Z,99.90
2019-05-12T02:35:49.379Z,99.90
2019-05-12T02:39:15.042Z,99.90
2019-05-12T02:42:37.768Z,99.90
2019-05-12T02:46:04.918Z,99.90
2019-05-12T02:49:28.240Z,99.90
2019-05-12T02:52:54.449Z,99.90
2019-05-12T02:56:18.843Z,99.90
2019-05-12T02:59:46.226Z,99.90
2019-05-12T03:03:14.414Z,99.90
2019-05-12T03:06:37.322Z,99.90
2019-05-12T03:10:05.030Z,99.90
2019-05-12T03:13:28.049Z,99.90
2019-05-12T03:16:53.883Z,99.90
2019-05-12T03:20:16.164Z,99.90
2019-05-12T03:23:39.196Z,99.90
2019-05-12T03:27:04.392Z,99.90
2019-05-12T03:30:29.458Z,99.90
2019-05-12T03:33:59.730Z,99.90
2019-05-12T03:37:18.646Z,99.90
2019-05-12T03:40:45.023Z,99.90
2019-05-12T03:44:06.836Z,99.90
2019-05-12T03:47:29.922Z,99.90
2019-05-12T03:50:54.152Z,99.90
2019-05-12T03:54:17.457Z,99.90
2019-05-12T03:57:40.736Z,99.90
2019-05-12T04:01:04.872Z,99.90
2019-05-12T04:04:28.178Z,99.90
2019-05-12T04:07:54.487Z,99.90
2019-05-12T04:11:16.138Z,99.90
2019-05-12T04:14:40.455Z,99.90
2019-05-12T04:18:05.656Z,99.90
2019-05-12T04:21:28.781Z,99.90
2019-05-12T04:24:54.908Z,99.90
2019-05-12T04:28:16.799Z,99.90
2019-05-12T04:31:39.844Z,99.90
2019-05-12T04:35:05.042Z,99.90
2019-05-12T04:38:28.265Z,99.90
2019-05-12T04:41:54.983Z,99.90
2019-05-12T04:45:16.744Z,99.90
2019-05-12T04:48:39.762Z,99.90
2019-05-12T04:52:05.258Z,99.90
2019-05-12T04:55:27.741Z,99.90
2019-05-12T04:58:54.314Z,99.90
2019-05-12T05:02:15.716Z,99.90
2019-05-12T05:05:39.094Z,99.90
2019-05-12T05:09:05.272Z,99.90
2019-05-12T05:12:28.496Z,99.90
2019-05-12T05:15:54.370Z,99.90
2019-05-12T05:19:16.834Z,99.90
2019-05-12T05:22:40.405Z,99.90
2019-05-12T05:26:03.883Z,99.90
2019-05-12T05:29:26.878Z,99.90
2019-05-12T05:32:49.986Z,99.90
2019-05-12T05:36:19.575Z,99.90
2019-05-12T05:39:48.221Z,99.90
2019-05-12T05:43:12.405Z,99.90
2019-05-12T05:46:29.680Z,99.90
2019-05-12T05:49:53.983Z,99.90
2019-05-12T05:53:19.603Z,99.90
2019-05-12T05:56:50.723Z,99.90
2019-05-12T06:00:16.417Z,99.90
2019-05-12T06:03:33.896Z,99.90
2019-05-12T06:06:56.899Z,99.90
2019-05-12T06:10:19.954Z,99.90
2019-05-12T06:13:44.305Z,99.90
2019-05-12T06:17:08.712Z,99.90
2019-05-12T06:20:35.451Z,99.90
2019-05-12T06:23:56.917Z,99.90
2019-05-12T06:27:20.942Z,99.90
2019-05-12T06:30:47.663Z,99.90
2019-05-12T06:34:15.370Z,99.90
2019-05-12T06:37:34.936Z,99.90
2019-05-12T06:40:58.456Z,99.90
2019-05-12T06:44:24.069Z,99.90
2019-05-12T06:47:49.631Z,99.90
2019-05-12T06:51:17.035Z,99.90
2019-05-12T06:54:37.196Z,99.90
2019-05-12T06:58:00.244Z,99.90
2019-05-12T07:01:24.159Z,99.90
2019-05-12T07:04:57.245Z,99.90
2019-05-12T07:08:20.087Z,99.90
2019-05-12T07:11:47.570Z,99.90
2019-05-12T07:15:06.167Z,99.90
2019-05-12T07:18:32.827Z,99.90
2019-05-12T07:21:58.803Z,99.90
2019-05-12T07:25:22.873Z,99.90
2019-05-12T07:28:44.235Z,99.90
2019-05-12T07:32:16.442Z,99.90
2019-05-12T07:35:34.321Z,99.90
2019-05-12T07:39:03.945Z,99.90
2019-05-12T07:42:31.538Z,99.90
2019-05-12T07:46:01.831Z,99.90
2019-05-12T07:49:22.030Z,99.90
2019-05-12T07:52:44.311Z,99.90
2019-05-12T07:56:07.433Z,99.90
2019-05-12T07:59:39.522Z,99.90
2019-05-12T08:02:55.492Z,99.90
2019-05-12T08:06:18.653Z,99.90
2019-05-12T08:09:43.211Z,99.90
2019-05-12T08:13:06.596Z,99.90
2019-05-12T08:16:33.640Z,99.90
2019-05-12T08:19:54.761Z,99.90
2019-05-12T08:23:17.784Z,99.90
2019-05-12T08:26:40.901Z,99.90
2019-05-12T08:30:06.313Z,99.90
2019-05-12T08:33:29.415Z,99.90
2019-05-12T08:36:56.728Z,99.90
2019-05-12T08:40:17.654Z,99.90
2019-05-12T08:43:46.194Z,99.90
2019-05-12T08:47:06.024Z,99.90
2019-05-12T08:50:31.600Z,99.90
2019-05-12T08:54:02.171Z,99.90
2019-05-12T08:57:18.998Z,99.90
2019-05-12T09:00:46.533Z,99.90
2019-05-12T09:04:12.155Z,99.90
2019-05-12T09:07:35.797Z,99.90
2019-05-12T09:10:58.804Z,99.90
2019-05-12T09:14:23.760Z,99.20
2019-05-12T09:17:52.457Z,99.50
2019-05-12T09:21:13.888Z,99.50
2019-05-12T09:24:36.768Z,98.30
2019-05-12T09:27:59.971Z,98.10
2019-05-12T09:31:25.367Z,98.80
2019-05-12T09:34:52.890Z,98.60
2019-05-12T09:38:21.439Z,99.90
2019-05-12T09:41:42.610Z,99.90
2019-05-12T09:45:06.144Z,99.30
2019-05-12T09:48:28.277Z,99.10
2019-05-12T09:51:51.276Z,99.30
2019-05-12T09:55:14.808Z,98.60
2019-05-12T09:58:38.008Z,97.40
2019-05-12T10:02:03.528Z,97.40
2019-05-12T10:05:30.504Z,97.40
2019-05-12T10:08:54.943Z,95.40
2019-05-12T10:12:17.300Z,84.10
2019-05-12T10:15:40.387Z,86.70
2019-05-12T10:19:04.101Z,76.10
2019-05-12T10:22:35.752Z,73.70
2019-05-12T10:26:09.465Z,80.00
2019-05-12T10:29:30.630Z,71.40
2019-05-12T10:32:52.461Z,73.80
2019-05-12T10:36:15.558Z,76.10
2019-05-12T10:39:38.588Z,72.10
2019-05-12T10:43:04.161Z,63.20
2019-05-12T10:46:28.627Z,60.40
2019-05-12T10:49:53.883Z,51.70
2019-05-12T10:53:17.988Z,48.50
2019-05-12T10:56:43.683Z,49.30
2019-05-12T11:00:06.689Z,48.40
2019-05-12T11:03:29.761Z,50.70
2019-05-12T11:06:53.787Z,49.50
2019-05-12T11:10:19.997Z,46.50
2019-05-12T11:13:48.332Z,46.50
2019-05-12T11:17:09.539Z,43.80
2019-05-12T11:20:34.289Z,40.80
2019-05-12T11:23:58.103Z,37.70
2019-05-12T11:27:21.309Z,36.70
2019-05-12T11:30:44.462Z,37.30
2019-05-12T11:34:07.476Z,33.90
2019-05-12T11:37:30.597Z,33.80
2019-05-12T11:40:53.928Z,34.40
2019-05-12T11:44:17.429Z,35.60
2019-05-12T11:47:40.623Z,34.60
2019-05-12T11:51:04.028Z,32.80
2019-05-12T11:54:28.092Z,32.00
2019-05-12T11:57:51.365Z,30.20
2019-05-12T12:01:16.360Z,30.50
2019-05-12T12:04:45.281Z,29.50
2019-05-12T12:08:08.433Z,30.20
2019-05-12T12:11:31.535Z,29.70
2019-05-12T12:14:54.780Z,30.00
2019-05-12T12:18:17.788Z,28.90
2019-05-12T12:21:48.064Z,28.60
2019-05-12T12:25:11.024Z,27.90
2019-05-12T12:28:31.271Z,29.50
2019-05-12T12:31:55.463Z,32.60
2019-05-12T12:35:18.675Z,30.20
2019-05-12T12:38:43.917Z,33.30
2019-05-12T12:42:07.175Z,33.50
2019-05-12T12:45:40.628Z,34.10
2019-05-12T12:49:08.622Z,32.20
2019-05-12T12:52:29.284Z,31.20
2019-05-12T12:55:53.758Z,34.60
2019-05-12T12:59:16.961Z,34.70
2019-05-12T13:02:45.115Z,30.00
2019-05-12T13:06:04.974Z,28.60
2019-05-12T13:09:27.972Z,27.80
2019-05-12T13:12:58.672Z,26.80
2019-05-12T13:16:16.071Z,27.60
2019-05-12T13:19:39.128Z,27.10
2019-05-12T13:23:04.049Z,27.40
2019-05-12T13:26:27.206Z,30.20
2019-05-12T13:29:50.264Z,33.60
2019-05-12T13:33:15.103Z,37.60
2019-05-12T13:36:39.390Z,39.50
2019-05-12T13:40:02.729Z,39.20
2019-05-12T13:43:25.810Z,41.40
2019-05-12T13:46:53.691Z,42.90
2019-05-12T13:50:21.644Z,43.50
2019-05-12T13:53:45.456Z,42.40
2019-05-12T13:57:11.824Z,39.10
2019-05-12T14:00:30.144Z,35.10
2019-05-12T14:03:53.730Z,32.80
2019-05-12T14:07:20.442Z,30.20
2019-05-12T14:10:53.283Z,29.00
2019-05-12T14:14:14.132Z,28.50
2019-05-12T14:17:39.352Z,28.00
2019-05-12T14:21:00.858Z,27.60
2019-05-12T14:24:24.001Z,27.20
2019-05-12T14:27:47.329Z,25.80
2019-05-12T14:31:22.761Z,26.90
2019-05-12T14:34:35.598Z,26.90
2019-05-12T14:37:58.592Z,26.40
2019-05-12T14:41:26.318Z,26.20
2019-05-12T14:44:49.680Z,28.80
2019-05-12T14:48:13.683Z,32.40
2019-05-12T14:51:36.682Z,36.40
2019-05-12T14:55:03.337Z,37.90
2019-05-12T14:58:26.016Z,36.00
2019-05-12T15:01:57.452Z,30.20
2019-05-12T15:05:14.378Z,30.20
2019-05-12T15:08:40.399Z,29.00
2019-05-12T15:12:03.568Z,27.90
2019-05-12T15:15:26.739Z,26.20
2019-05-12T15:18:50.242Z,26.70
2019-05-12T15:22:14.784Z,27.00
2019-05-12T15:25:38.215Z,30.00
2019-05-12T15:29:06.916Z,30.70
2019-05-12T15:32:26.391Z,30.50
2019-05-12T15:35:49.555Z,32.70
2019-05-12T15:39:14.005Z,35.50
2019-05-12T15:42:37.249Z,37.30
2019-05-12T15:46:00.511Z,39.10
2019-05-12T15:49:26.004Z,40.90
2019-05-12T15:52:48.877Z,41.50
2019-05-12T15:56:17.574Z,41.40
2019-05-12T15:59:37.456Z,43.10
2019-05-12T16:03:00.522Z,42.10
2019-05-12T16:06:23.539Z,41.10
2019-05-12T16:09:46.640Z,40.50
2019-05-12T16:13:09.831Z,38.00
2019-05-12T16:16:41.998Z,39.30
2019-05-12T16:19:59.180Z,40.80
2019-05-12T16:23:24.935Z,41.70
2019-05-12T16:26:51.853Z,42.20
2019-05-12T16:30:13.947Z,44.40
2019-05-12T16:33:37.276Z,45.70
2019-05-12T16:37:00.290Z,46.40
2019-05-12T16:40:23.893Z,45.40
2019-05-12T16:43:47.709Z,44.40
2019-05-12T16:47:10.721Z,44.80
2019-05-12T16:50:34.550Z,45.20
2019-05-12T16:53:57.774Z,46.00
2019-05-12T16:57:20.894Z,45.70
2019-05-12T17:00:48.960Z,43.00
2019-05-12T17:04:09.071Z,40.80
2019-05-12T17:07:34.332Z,40.10
2019-05-12T17:11:15.153Z,41.80
2019-05-12T17:14:23.533Z,42.80
2019-05-12T17:17:50.763Z,44.40
2019-05-12T17:21:14.122Z,45.80
2019-05-12T17:24:37.417Z,46.90
2019-05-12T17:28:05.503Z,47.80
2019-05-12T17:31:29.887Z,48.70
2019-05-12T17:34:53.341Z,50.20
2019-05-12T17:38:19.671Z,49.90
2019-05-12T17:41:45.009Z,49.40
2019-05-12T17:45:09.297Z,50.40
2019-05-12T17:48:37.143Z,48.70
2019-05-12T17:51:57.438Z,49.60
2019-05-12T17:55:22.405Z,50.40
2019-05-12T17:58:47.586Z,51.60
2019-05-12T18:02:16.404Z,52.10
2019-05-12T18:05:36.583Z,52.50
2019-05-12T18:08:59.735Z,54.30
2019-05-12T18:12:26.727Z,55.30
2019-05-12T18:15:48.265Z,58.40
2019-05-12T18:19:15.424Z,57.70
2019-05-12T18:22:39.354Z,58.00
2019-05-12T18:26:03.131Z,60.10
2019-05-12T18:29:26.723Z,61.40
2019-05-12T18:32:57.662Z,58.90
2019-05-12T18:36:16.042Z,59.10
2019-05-12T18:39:39.241Z,59.90
2019-05-12T18:43:03.954Z,60.50
2019-05-12T18:46:27.748Z,60.70
2019-05-12T18:49:54.063Z,61.20
2019-05-12T19:23:03.616Z,65.60
2019-05-12T19:26:32.920Z,65.70
2019-05-12T19:30:39.543Z,66.70
2019-05-12T20:10:24.090Z,69.10
2019-05-12T20:13:59.305Z,69.50
